Etusivu
METAR-TAF:

METAR-TAF

Lentoasemat :

Trapani, Italia

Leveyspiiri: 37-55N, Pituuspiiri: 012-30E, korkeus merenpinnasta: 7 m

Tämänhetkinen sää

Tämä raportti tehtiin 25 minuuttia sitten, kello 11.55 UTC
Tuuli 9 kn pohjoisesta
Lämpötila 15°C
Kosteus 72%
Ilmanpaine 1025 hPa
Näkyvyys 10 km tai enemmän
Muutamia pilviä 2200 ft:n korkeudessa

METAR: LICT 181155Z 36009KT 9999 FEW022 15/10 Q1025 RMK FEW VIS MIN 9999 WIND THR13 32008KT BLU

Aika: 13:20 (12:20 UTC)

Sääennuste

Tämä raportti tehtiin 1 tunti ja 20 minuuttia sitten, kello 11.00 UTC
Ennuste voimassa 18. päivästä klo 12 UTC - 18. päivään klo 21 UTC
Tuuli 8 kn pohjoisen/luoteesta
Näkyvyys 10 km tai enemmän
Muutamia pilviä 2000 ft:n korkeudessa

TAF: LICT 181100Z 1812/1821 34008KT 9999 FEW020

Säähavainnot ja -ennusteet yli 4000 lentoasemalta (METAR- ja TAF-raportit).

Käytössä olevat sääasemat on merkitty karttaan keltaisilla ja punaisilla pisteillä.

Aseta hiiri pisteen päälle nähdäksesi sääaseman nimen.

Klikkaa sitten nähdäksesi säähavainnot ja -ennusteet.

Kartan vaihtaminen: klikkaa mustalla rastilla varustettuja vihreitä pisteitä, niin voit zoomata sisään; viivalla varustettua vihreää pistettä, niin voit zoomata ulos tai vihreitä nuolia, niin pääset viereisille kartoille.


METAR-TAF: